Time;durP1;ratioP1;P1;durP2;ratioP2;P2;SDS_P1;SDS_P2;PMS_P1;PMS_P2;Temp;Humidity;BMP_temperature;BMP_pressure;BME280_temperature;BME280_humidity;BME280_pressure;Samples;Min_cycle;Max_cycle;Signal;HPM_P1;HPM_P2
2023/08/05 00:01:07;;;;;;;10.52;3.35;;;18.80;99.90;;;;;;5053652;28;20048;-60
2023/08/05 00:03:33;;;;;;;9.10;2.85;;;18.80;99.90;;;;;;5053685;28;20028;-60
2023/08/05 00:05:58;;;;;;;7.57;3.05;;;18.90;99.90;;;;;;5053706;28;20032;-60
2023/08/05 00:08:24;;;;;;;11.88;4.07;;;18.90;99.90;;;;;;5053078;28;20375;-60
2023/08/05 00:10:50;;;;;;;8.48;3.08;;;18.80;99.90;;;;;;5053504;28;20029;-60
2023/08/05 00:13:16;;;;;;;10.60;3.17;;;18.90;99.90;;;;;;5053547;28;20029;-60
2023/08/05 00:15:42;;;;;;;11.35;3.40;;;18.70;99.90;;;;;;5053395;28;20061;-60
2023/08/05 00:18:08;;;;;;;9.32;3.17;;;18.60;99.90;;;;;;5053295;28;20040;-60
2023/08/05 00:20:34;;;;;;;10.88;4.00;;;18.50;99.90;;;;;;5053405;28;20434;-61
2023/08/05 00:23:00;;;;;;;8.68;2.85;;;18.50;99.90;;;;;;5053465;28;20029;-60
2023/08/05 00:25:25;;;;;;;8.85;3.25;;;18.30;99.90;;;;;;5052903;28;20044;-60
2023/08/05 00:27:51;;;;;;;6.85;2.80;;;18.20;99.90;;;;;;5052997;28;20029;-60
2023/08/05 00:30:17;;;;;;;7.50;3.17;;;18.10;99.90;;;;;;5053122;28;20021;-60
2023/08/05 00:32:42;;;;;;;9.35;3.28;;;18.00;99.90;;;;;;5053233;28;20037;-61
2023/08/05 00:35:08;;;;;;;8.05;3.13;;;18.00;99.90;;;;;;5053089;28;20025;-60
2023/08/05 00:37:35;;;;;;;9.25;3.22;;;17.90;99.90;;;;;;5053065;28;20040;-60
2023/08/05 00:40:02;;;;;;;10.52;3.40;;;17.80;99.90;;;;;;5053308;28;20104;-60
2023/08/05 00:42:28;;;;;;;9.27;3.28;;;17.70;99.90;;;;;;5052784;28;20033;-60
2023/08/05 00:44:54;;;;;;;11.07;3.40;;;17.50;99.90;;;;;;5052887;28;20032;-61
2023/08/05 00:47:20;;;;;;;8.50;3.05;;;17.40;99.90;;;;;;5052954;28;20425;-60
2023/08/05 00:49:47;;;;;;;8.82;2.80;;;17.30;99.90;;;;;;5053129;28;20029;-59
2023/08/05 00:52:16;;;;;;;10.07;3.65;;;17.20;99.90;;;;;;5052619;28;20032;-60
2023/08/05 00:54:42;;;;;;;8.02;3.05;;;17.10;99.90;;;;;;5052433;28;20406;-61
2023/08/05 00:57:10;;;;;;;11.07;3.38;;;17.10;99.90;;;;;;5052704;28;20030;-61
2023/08/05 00:59:36;;;;;;;7.30;3.05;;;17.10;99.90;;;;;;5053020;28;20100;-60
2023/08/05 01:02:01;;;;;;;6.47;3.05;;;17.10;99.90;;;;;;5052463;28;20469;-60
2023/08/05 01:04:27;;;;;;;9.65;3.45;;;17.30;99.90;;;;;;5052344;28;20098;-60
2023/08/05 01:06:53;;;;;;;7.13;3.00;;;17.40;99.90;;;;;;5052529;28;20029;-60
2023/08/05 01:09:19;;;;;;;7.72;3.13;;;17.50;99.90;;;;;;5052013;28;20017;-59
2023/08/05 01:11:46;;;;;;;8.23;3.15;;;17.50;99.90;;;;;;5052616;28;20166;-60
2023/08/05 01:14:11;;;;;;;8.15;3.20;;;17.50;99.90;;;;;;5052060;28;20037;-60
2023/08/05 01:16:37;;;;;;;10.57;3.13;;;17.40;99.90;;;;;;5052990;28;20025;-60
2023/08/05 01:19:08;;;;;;;8.02;3.25;;;17.40;99.90;;;;;;5051140;28;20484;-60
2023/08/05 01:21:56;;;;;;;8.55;3.15;;;17.40;99.90;;;;;;5052009;28;20505;-60
2023/08/05 01:24:36;;;;;;;10.73;3.50;;;17.40;99.90;;;;;;5051603;28;20040;-60
2023/08/05 01:27:04;;;;;;;6.45;3.33;;;17.40;99.90;;;;;;5052472;28;20029;-61
2023/08/05 01:29:29;;;;;;;9.10;3.63;;;17.30;99.90;;;;;;5052024;28;20048;-60
2023/08/05 01:31:56;;;;;;;7.72;3.08;;;17.20;99.90;;;;;;5052014;28;20482;-61
2023/08/05 01:34:22;;;;;;;10.90;3.95;;;16.90;99.90;;;;;;5051974;28;20029;-60
2023/08/05 01:36:48;;;;;;;6.75;2.83;;;16.70;99.90;;;;;;5051818;28;20025;-60
2023/08/05 01:39:13;;;;;;;8.07;3.00;;;16.50;99.90;;;;;;5051606;28;20025;-60
2023/08/05 01:41:39;;;;;;;7.25;3.10;;;16.40;99.90;;;;;;5051906;28;20093;-61
2023/08/05 01:44:05;;;;;;;8.27;3.10;;;16.30;99.90;;;;;;5052036;28;20029;-60
2023/08/05 01:46:30;;;;;;;6.93;3.30;;;16.30;99.90;;;;;;5051730;28;20112;-60
2023/08/05 01:48:56;;;;;;;8.60;3.35;;;16.20;99.90;;;;;;5051713;28;20033;-60
2023/08/05 01:51:21;;;;;;;7.00;3.20;;;16.20;99.90;;;;;;5051406;28;20446;-60
2023/08/05 01:53:48;;;;;;;10.20;3.42;;;16.20;99.90;;;;;;5050085;28;20033;-60
2023/08/05 01:56:13;;;;;;;7.68;3.38;;;16.20;99.90;;;;;;5051808;28;20164;-60
2023/08/05 01:58:39;;;;;;;7.25;3.47;;;16.20;99.90;;;;;;5051812;28;20116;-61
2023/08/05 02:01:05;;;;;;;7.28;3.28;;;16.10;99.90;;;;;;5051698;28;20072;-60
2023/08/05 02:03:30;;;;;;;7.55;3.10;;;16.10;99.90;;;;;;5051534;28;20482;-60
2023/08/05 02:05:56;;;;;;;8.23;3.35;;;16.10;99.90;;;;;;5051499;28;20024;-60
2023/08/05 02:08:22;;;;;;;9.02;3.70;;;16.00;99.90;;;;;;5051236;28;20405;-60
2023/08/05 02:10:48;;;;;;;8.48;3.55;;;16.00;99.90;;;;;;5051215;28;20494;-60
2023/08/05 02:13:15;;;;;;;8.75;3.50;;;16.00;99.90;;;;;;5051671;28;20090;-60
2023/08/05 02:15:40;;;;;;;10.00;3.67;;;16.00;99.90;;;;;;5051344;28;20017;-60
2023/08/05 02:18:06;;;;;;;6.00;3.00;;;16.00;99.90;;;;;;5051278;28;20044;-60
2023/08/05 02:20:32;;;;;;;7.78;3.03;;;16.20;99.90;;;;;;5050943;28;20115;-60
2023/08/05 02:22:58;;;;;;;7.15;3.20;;;16.40;99.90;;;;;;5050807;28;20032;-60
2023/08/05 02:25:24;;;;;;;9.07;3.50;;;16.70;99.90;;;;;;5051307;28;20063;-60
2023/08/05 02:27:49;;;;;;;8.23;3.17;;;16.80;99.90;;;;;;5049968;28;20116;-60
2023/08/05 02:30:15;;;;;;;10.77;3.55;;;16.90;99.90;;;;;;5050720;28;20397;-60
2023/08/05 02:32:41;;;;;;;9.77;3.25;;;17.00;99.90;;;;;;5051110;28;20029;-60
2023/08/05 02:35:07;;;;;;;10.15;3.13;;;17.10;99.90;;;;;;5050920;28;20025;-60
2023/08/05 02:37:32;;;;;;;6.50;3.15;;;17.10;99.90;;;;;;5049473;28;20402;-59
2023/08/05 02:39:58;;;;;;;6.40;3.00;;;17.10;99.90;;;;;;5050936;28;20043;-60
2023/08/05 02:42:23;;;;;;;8.05;3.20;;;17.10;99.90;;;;;;5050886;28;20029;-60
2023/08/05 02:44:50;;;;;;;11.32;3.67;;;17.10;99.90;;;;;;5051505;28;20036;-61
2023/08/05 02:47:16;;;;;;;9.02;3.55;;;17.00;99.90;;;;;;5050985;28;20025;-61
2023/08/05 02:49:42;;;;;;;8.48;3.30;;;16.80;99.90;;;;;;5050959;28;20367;-60
2023/08/05 02:52:07;;;;;;;8.38;3.60;;;16.60;99.90;;;;;;5050613;28;20112;-60
2023/08/05 02:54:33;;;;;;;8.80;3.40;;;16.50;99.90;;;;;;5050923;28;20136;-60
2023/08/05 02:56:59;;;;;;;9.15;3.53;;;16.40;99.90;;;;;;5051298;28;20029;-60
2023/08/05 02:59:25;;;;;;;9.43;3.85;;;16.30;99.90;;;;;;5050928;28;20410;-61
2023/08/05 03:01:50;;;;;;;8.25;3.63;;;16.20;99.90;;;;;;5050888;28;20110;-60
2023/08/05 03:04:16;;;;;;;9.30;3.58;;;16.10;99.90;;;;;;5050571;28;20036;-60
2023/08/05 03:06:42;;;;;;;7.18;3.40;;;16.10;99.90;;;;;;5050523;28;20082;-60
2023/08/05 03:09:08;;;;;;;9.30;3.63;;;16.10;99.90;;;;;;5050881;28;20122;-60
2023/08/05 03:11:34;;;;;;;8.48;3.28;;;16.10;99.90;;;;;;5050836;28;20143;-60
2023/08/05 03:14:00;;;;;;;6.78;3.30;;;16.00;99.90;;;;;;5050597;28;20493;-60
2023/08/05 03:16:26;;;;;;;5.80;3.05;;;16.00;99.90;;;;;;5051006;28;20056;-60
2023/08/05 03:18:51;;;;;;;6.22;3.22;;;15.90;99.90;;;;;;5050555;28;20390;-60
2023/08/05 03:21:17;;;;;;;7.13;3.45;;;15.90;99.90;;;;;;5050415;28;20394;-61
2023/08/05 03:23:43;;;;;;;6.47;3.25;;;15.90;99.90;;;;;;5050589;28;20104;-60
2023/08/05 03:26:08;;;;;;;9.68;3.40;;;16.00;99.90;;;;;;5050941;28;20048;-60
2023/08/05 03:28:34;;;;;;;7.50;3.30;;;16.00;99.90;;;;;;5050690;28;20449;-61
2023/08/05 03:31:00;;;;;;;8.23;3.70;;;16.00;99.90;;;;;;5050538;28;20803;-60
2023/08/05 03:33:25;;;;;;;7.13;3.17;;;15.90;99.90;;;;;;5051013;28;20021;-60
2023/08/05 03:35:51;;;;;;;9.43;3.40;;;15.90;99.90;;;;;;5050270;28;20438;-60
2023/08/05 03:38:17;;;;;;;7.35;3.15;;;16.00;99.90;;;;;;5050581;28;20091;-60
2023/08/05 03:40:43;;;;;;;8.70;3.22;;;16.10;99.90;;;;;;5050863;28;20478;-60
2023/08/05 03:43:09;;;;;;;8.30;3.10;;;16.20;99.90;;;;;;5052595;28;20029;-60
2023/08/05 03:45:34;;;;;;;8.30;3.20;;;16.30;99.90;;;;;;5054103;28;20521;-60
2023/08/05 03:48:00;;;;;;;7.60;3.60;;;16.30;99.90;;;;;;5053958;28;20524;-61
2023/08/05 03:50:29;;;;;;;6.80;3.65;;;16.40;99.90;;;;;;5053878;28;20495;-60
2023/08/05 03:52:55;;;;;;;8.27;3.28;;;16.50;99.90;;;;;;5054206;28;20037;-59
2023/08/05 03:55:21;;;;;;;5.20;2.90;;;16.50;99.90;;;;;;5053873;28;20041;-59
2023/08/05 03:57:48;;;;;;;7.68;3.08;;;16.50;99.90;;;;;;5054064;28;20334;-60
2023/08/05 04:00:14;;;;;;;7.40;3.30;;;16.50;99.90;;;;;;5053703;28;20116;-60
2023/08/05 04:02:41;;;;;;;8.85;3.58;;;16.50;99.90;;;;;;5053574;28;20040;-60
2023/08/05 04:05:07;;;;;;;5.13;3.00;;;16.40;99.90;;;;;;5053687;28;20033;-59
2023/08/05 04:07:33;;;;;;;7.85;3.20;;;16.10;99.90;;;;;;5053621;28;20624;-60
2023/08/05 04:09:59;;;;;;;11.57;3.33;;;16.00;99.90;;;;;;5053629;28;20036;-60
2023/08/05 04:12:26;;;;;;;9.07;3.35;;;15.90;99.90;;;;;;5053599;28;20063;-60
2023/08/05 04:14:52;;;;;;;6.97;3.42;;;15.90;99.90;;;;;;5053274;28;20498;-60
2023/08/05 04:17:19;;;;;;;6.25;3.30;;;15.70;99.90;;;;;;5053410;28;20506;-60
2023/08/05 04:19:47;;;;;;;7.38;2.90;;;15.70;99.90;;;;;;5053322;28;20036;-60
2023/08/05 04:22:15;;;;;;;7.03;3.42;;;15.70;99.90;;;;;;5053431;28;20025;-60
2023/08/05 04:24:42;;;;;;;5.75;2.95;;;15.60;99.90;;;;;;5051854;28;20109;-60
2023/08/05 04:27:08;;;;;;;8.10;3.75;;;15.60;99.90;;;;;;5053365;28;20390;-60
2023/08/05 04:29:34;;;;;;;10.05;3.55;;;15.50;99.90;;;;;;5053108;28;20025;-60
2023/08/05 04:32:00;;;;;;;9.32;3.53;;;15.50;99.90;;;;;;5053326;28;20029;-60
2023/08/05 04:34:25;;;;;;;8.35;3.00;;;15.50;99.90;;;;;;5052828;28;20450;-60
2023/08/05 04:36:52;;;;;;;6.00;3.22;;;15.50;99.90;;;;;;5053410;28;20027;-60
2023/08/05 04:39:21;;;;;;;7.30;3.65;;;15.40;99.90;;;;;;5053175;28;20100;-60
2023/08/05 04:41:47;;;;;;;6.30;3.10;;;15.40;99.90;;;;;;5053174;28;20039;-60
2023/08/05 04:44:13;;;;;;;5.82;2.92;;;15.40;99.90;;;;;;5052894;28;20151;-60
2023/08/05 04:46:39;;;;;;;7.47;3.63;;;15.40;99.90;;;;;;5051747;28;20052;-60
2023/08/05 04:49:07;;;;;;;7.40;3.17;;;15.40;99.90;;;;;;5053016;28;20032;-61
2023/08/05 04:51:34;;;;;;;6.55;3.40;;;15.30;99.90;;;;;;5052817;28;20104;-61
2023/08/05 04:54:00;;;;;;;9.20;3.40;;;15.30;99.90;;;;;;5052452;28;20033;-60
2023/08/05 04:56:26;;;;;;;6.85;3.10;;;15.50;99.90;;;;;;5052781;28;20094;-60
2023/08/05 04:58:52;;;;;;;7.10;3.00;;;15.70;99.90;;;;;;5052714;28;20061;-60
2023/08/05 05:01:17;;;;;;;6.10;3.30;;;15.90;99.90;;;;;;5052740;28;20444;-60
2023/08/05 05:03:48;;;;;;;7.78;3.25;;;15.90;99.90;;;;;;5051377;28;20025;-60
2023/08/05 05:06:14;;;;;;;8.07;3.17;;;16.00;99.90;;;;;;5052454;28;20059;-60
2023/08/05 05:08:40;;;;;;;5.97;3.30;;;16.00;99.90;;;;;;5052628;28;20033;-60
2023/08/05 05:11:09;;;;;;;5.90;3.42;;;16.00;99.90;;;;;;5052652;28;20032;-60
2023/08/05 05:13:35;;;;;;;7.00;2.88;;;15.90;99.90;;;;;;5052571;28;20053;-60
2023/08/05 05:16:02;;;;;;;6.47;3.22;;;16.00;99.90;;;;;;5052005;28;20060;-60
2023/08/05 05:18:28;;;;;;;7.75;3.45;;;16.00;99.90;;;;;;5052320;28;20383;-60
2023/08/05 05:20:54;;;;;;;8.10;3.20;;;15.90;99.90;;;;;;5052148;28;20044;-60
2023/08/05 05:23:20;;;;;;;6.22;3.10;;;15.70;99.90;;;;;;5052210;28;20021;-60
2023/08/05 05:25:46;;;;;;;6.55;3.05;;;15.50;99.90;;;;;;5052048;28;20076;-60
2023/08/05 05:28:12;;;;;;;7.18;3.80;;;15.40;99.90;;;;;;5051944;28;20124;-60
2023/08/05 05:30:38;;;;;;;11.68;4.05;;;15.30;99.90;;;;;;5051780;28;20032;-60
2023/08/05 05:33:04;;;;;;;8.70;4.03;;;15.20;99.90;;;;;;5051149;28;20025;-60
2023/08/05 05:35:29;;;;;;;9.55;3.55;;;15.20;99.90;;;;;;5051903;28;20478;-61
2023/08/05 05:37:55;;;;;;;8.73;3.70;;;15.10;99.90;;;;;;5051996;28;20115;-60
2023/08/05 05:40:21;;;;;;;10.27;3.53;;;15.10;99.90;;;;;;5051724;28;20104;-60
2023/08/05 05:42:49;;;;;;;6.82;3.63;;;15.10;99.90;;;;;;5051980;28;20498;-60
2023/08/05 05:45:15;;;;;;;7.40;4.35;;;15.10;99.90;;;;;;5051558;28;20056;-60
2023/08/05 05:47:41;;;;;;;8.55;3.60;;;15.10;99.90;;;;;;5051737;28;20033;-60
2023/08/05 05:50:07;;;;;;;7.53;3.72;;;15.00;99.90;;;;;;5051632;28;20020;-61
2023/08/05 05:52:34;;;;;;;6.88;3.63;;;15.00;99.90;;;;;;5052036;28;20040;-60
2023/08/05 05:55:00;;;;;;;9.05;3.88;;;15.10;99.90;;;;;;5051617;28;20037;-60
2023/08/05 05:57:25;;;;;;;7.82;3.92;;;15.10;99.90;;;;;;5050263;28;20021;-60
2023/08/05 05:59:51;;;;;;;7.28;3.97;;;15.10;99.90;;;;;;5051383;28;20394;-60
2023/08/05 06:02:17;;;;;;;8.45;4.38;;;15.10;99.90;;;;;;5051460;28;20033;-60
2023/08/05 06:04:44;;;;;;;7.57;3.88;;;15.20;99.90;;;;;;5051314;28;20029;-60
2023/08/05 06:07:10;;;;;;;6.95;4.25;;;15.20;99.90;;;;;;5051752;28;20029;-60
2023/08/05 06:09:35;;;;;;;10.07;4.30;;;15.20;99.90;;;;;;5051568;28;20100;-60
2023/08/05 06:12:01;;;;;;;7.53;3.92;;;15.50;99.90;;;;;;5051314;28;20029;-60
2023/08/05 06:14:29;;;;;;;8.43;3.72;;;15.70;99.90;;;;;;5050771;28;20037;-60
2023/08/05 06:16:55;;;;;;;7.70;3.75;;;15.90;99.90;;;;;;5051308;28;20024;-60
2023/08/05 06:19:20;;;;;;;8.38;3.92;;;16.10;99.90;;;;;;5051230;28;20028;-60
2023/08/05 06:21:46;;;;;;;9.50;4.20;;;16.20;99.90;;;;;;5051198;28;20041;-60
2023/08/05 06:24:12;;;;;;;8.65;3.78;;;16.30;99.90;;;;;;5051461;28;20052;-60
2023/08/05 06:26:38;;;;;;;6.05;3.47;;;16.50;99.90;;;;;;5051213;28;20029;-60
2023/08/05 06:29:04;;;;;;;9.50;3.72;;;16.60;99.90;;;;;;5050774;28;20498;-60
2023/08/05 06:31:30;;;;;;;7.57;3.50;;;16.70;99.90;;;;;;5049766;28;20128;-60
2023/08/05 06:33:56;;;;;;;6.18;3.70;;;16.80;99.90;;;;;;5051790;28;20366;-60
2023/08/05 06:36:22;;;;;;;7.20;4.28;;;16.90;99.90;;;;;;5051008;28;20033;-60
2023/08/05 06:38:48;;;;;;;8.63;3.95;;;16.80;99.90;;;;;;5051057;28;20036;-60
2023/08/05 06:41:14;;;;;;;7.45;3.75;;;16.70;99.90;;;;;;5050892;28;20110;-60
2023/08/05 06:43:39;;;;;;;8.05;3.90;;;16.70;99.90;;;;;;5051103;28;20033;-60
2023/08/05 06:46:05;;;;;;;7.93;3.90;;;16.70;99.90;;;;;;5051041;28;20021;-60
2023/08/05 06:48:31;;;;;;;9.48;4.18;;;16.70;99.90;;;;;;5051098;28;20029;-60
2023/08/05 06:50:57;;;;;;;10.15;3.80;;;16.70;99.90;;;;;;5050910;28;20025;-60
2023/08/05 06:53:23;;;;;;;9.80;3.92;;;16.80;99.90;;;;;;5051402;28;20029;-61
2023/08/05 06:56:02;;;;;;;6.55;3.63;;;16.80;99.90;;;;;;5050914;28;20033;-59
2023/08/05 06:58:28;;;;;;;8.93;3.90;;;16.80;99.90;;;;;;5050596;28;20025;-60
2023/08/05 07:00:54;;;;;;;7.40;3.70;;;16.90;99.90;;;;;;5051127;28;20044;-60
2023/08/05 07:03:19;;;;;;;7.70;3.78;;;17.10;99.90;;;;;;5050893;28;20056;-60
2023/08/05 07:05:45;;;;;;;8.23;3.38;;;17.10;99.90;;;;;;5050878;28;20481;-60
2023/08/05 07:08:11;;;;;;;6.60;3.70;;;17.20;99.90;;;;;;5049872;28;20063;-60
2023/08/05 07:10:37;;;;;;;4.85;3.10;;;17.40;99.90;;;;;;5050662;28;20021;-60
2023/08/05 07:13:06;;;;;;;7.95;3.35;;;17.40;99.90;;;;;;5050281;28;20032;-60
2023/08/05 07:15:38;;;;;;;5.95;3.40;;;17.60;99.90;;;;;;5050752;28;20025;-60
2023/08/05 07:18:05;;;;;;;7.72;3.72;;;17.60;99.90;;;;;;5054359;28;20056;-60
2023/08/05 07:20:31;;;;;;;7.20;3.72;;;17.60;99.90;;;;;;5054722;28;20025;-60
2023/08/05 07:22:56;;;;;;;8.20;3.50;;;17.70;99.90;;;;;;5054391;28;20025;-60
2023/08/05 07:25:22;;;;;;;8.60;3.78;;;17.80;99.90;;;;;;5052991;28;20106;-59
2023/08/05 07:27:47;;;;;;;8.75;3.65;;;18.00;99.90;;;;;;5054099;28;20028;-60
2023/08/05 07:30:13;;;;;;;5.95;3.30;;;18.20;99.90;;;;;;5054326;28;20028;-60
2023/08/05 07:32:39;;;;;;;9.18;3.60;;;18.40;99.90;;;;;;5054801;28;20538;-60
2023/08/05 07:35:07;;;;;;;6.10;3.30;;;18.60;99.90;;;;;;5054184;28;20383;-60
2023/08/05 07:37:34;;;;;;;8.60;3.67;;;18.80;99.90;;;;;;5054583;28;20092;-60
2023/08/05 07:40:00;;;;;;;6.40;3.47;;;18.80;99.90;;;;;;5052888;28;20537;-60
2023/08/05 07:42:27;;;;;;;6.22;3.42;;;18.90;99.90;;;;;;5052467;28;20036;-60
2023/08/05 07:44:53;;;;;;;7.88;3.15;;;18.90;99.90;;;;;;5054096;28;20025;-60
2023/08/05 07:47:19;;;;;;;7.65;2.80;;;19.10;99.90;;;;;;5054626;28;20508;-60
2023/08/05 07:49:45;;;;;;;4.75;2.30;;;19.20;99.90;;;;;;5054021;28;20104;-60
2023/08/05 07:52:11;;;;;;;8.18;2.40;;;19.30;99.90;;;;;;5054221;28;20032;-60
2023/08/05 07:54:37;;;;;;;6.63;2.40;;;19.30;99.90;;;;;;5053596;28;20032;-60
2023/08/05 07:57:03;;;;;;;8.25;2.83;;;19.40;99.90;;;;;;5053950;28;20062;-60
2023/08/05 07:59:30;;;;;;;7.35;2.38;;;19.50;99.90;;;;;;5053796;28;20025;-60
2023/08/05 08:01:57;;;;;;;9.38;2.40;;;19.40;99.90;;;;;;5053641;28;20060;-60
2023/08/05 08:04:22;;;;;;;8.00;2.50;;;19.40;99.90;;;;;;5053859;28;20025;-60
2023/08/05 08:06:48;;;;;;;8.45;2.70;;;19.40;99.90;;;;;;5054027;28;20029;-61
2023/08/05 08:09:14;;;;;;;6.68;2.50;;;19.40;99.90;;;;;;5053779;28;20112;-60
2023/08/05 08:11:40;;;;;;;9.43;2.70;;;19.30;99.90;;;;;;5053185;28;20128;-60
2023/08/05 08:14:06;;;;;;;8.70;2.53;;;19.20;99.90;;;;;;5053410;28;20039;-60
2023/08/05 08:16:32;;;;;;;7.55;2.80;;;19.20;99.90;;;;;;5053762;28;20585;-60
2023/08/05 08:18:58;;;;;;;8.07;2.53;;;19.20;99.90;;;;;;5053666;28;20101;-60
2023/08/05 08:21:24;;;;;;;11.82;3.00;;;19.20;99.90;;;;;;5053281;28;20048;-61
2023/08/05 08:23:50;;;;;;;9.43;2.80;;;19.20;99.90;;;;;;5053046;28;20021;-59
2023/08/05 08:26:15;;;;;;;7.53;2.58;;;19.20;99.90;;;;;;5053303;28;20037;-61
2023/08/05 08:28:41;;;;;;;10.43;3.15;;;19.30;99.90;;;;;;5052653;28;20021;-60
2023/08/05 08:31:06;;;;;;;6.85;2.70;;;19.40;99.90;;;;;;5053304;28;20036;-60
2023/08/05 08:33:32;;;;;;;9.63;2.60;;;19.50;99.90;;;;;;5053159;28;20062;-61
2023/08/05 08:35:58;;;;;;;6.60;2.42;;;19.50;99.90;;;;;;5053371;28;20397;-60
2023/08/05 08:38:24;;;;;;;8.40;2.88;;;19.60;99.90;;;;;;5053100;28;20021;-60
2023/08/05 08:40:58;;;;;;;6.70;2.60;;;19.70;99.90;;;;;;5053154;28;20128;-60
2023/08/05 08:43:23;;;;;;;7.13;2.70;;;19.70;99.90;;;;;;5052902;28;20524;-60
2023/08/05 08:45:53;;;;;;;6.50;2.30;;;19.80;99.90;;;;;;5053155;28;20060;-60
2023/08/05 08:48:20;;;;;;;8.77;2.50;;;19.80;99.90;;;;;;5053219;28;20348;-61
2023/08/05 08:50:48;;;;;;;6.10;2.42;;;20.00;99.90;;;;;;5052731;28;20079;-60
2023/08/05 08:53:14;;;;;;;6.70;2.33;;;20.30;99.90;;;;;;5052761;28;20497;-59
2023/08/05 08:55:41;;;;;;;7.22;2.47;;;20.50;99.90;;;;;;5052805;28;20029;-61
2023/08/05 08:58:07;;;;;;;6.43;2.22;;;20.70;99.90;;;;;;5053353;28;20029;-60
2023/08/05 09:00:33;;;;;;;7.05;2.45;;;20.60;99.90;;;;;;5051566;28;20459;-60
2023/08/05 09:03:00;;;;;;;6.00;2.55;;;20.60;99.90;;;;;;5052673;28;20036;-60
2023/08/05 09:05:31;;;;;;;6.20;2.55;;;20.60;99.90;;;;;;5052491;28;20017;-60
2023/08/05 09:07:57;;;;;;;7.50;2.60;;;20.70;99.90;;;;;;5050913;28;20501;-60
2023/08/05 09:10:24;;;;;;;7.70;2.45;;;20.90;99.90;;;;;;5052400;28;20474;-60
2023/08/05 09:12:50;;;;;;;8.18;2.40;;;20.90;99.90;;;;;;5052491;28;20500;-60
2023/08/05 09:15:15;;;;;;;7.57;2.33;;;21.00;99.90;;;;;;5052685;28;20112;-60
2023/08/05 09:17:41;;;;;;;8.48;2.47;;;21.00;99.90;;;;;;5052304;28;20029;-60
2023/08/05 09:20:16;;;;;;;6.03;2.13;;;20.90;99.90;;;;;;5052018;28;20025;-60
2023/08/05 09:22:56;;;;;;;6.93;2.72;;;20.80;99.90;;;;;;5051897;28;20033;-60
2023/08/05 09:25:23;;;;;;;10.65;2.65;;;20.90;99.90;;;;;;5052007;28;20053;-60
2023/08/05 09:27:53;;;;;;;7.28;2.35;;;20.90;99.90;;;;;;5052453;28;20029;-59
2023/08/05 09:30:21;;;;;;;5.50;2.00;;;20.90;99.90;;;;;;5052111;28;20055;-60
2023/08/05 09:32:47;;;;;;;8.40;2.40;;;20.70;99.90;;;;;;5052488;28;20108;-60
2023/08/05 09:35:13;;;;;;;8.95;2.20;;;20.60;99.90;;;;;;5052134;28;20033;-60
2023/08/05 09:37:44;;;;;;;9.32;2.70;;;20.60;99.90;;;;;;5051655;28;20131;-60
2023/08/05 09:40:28;;;;;;;8.38;2.20;;;20.70;99.90;;;;;;5050914;28;20512;-60
2023/08/05 09:42:57;;;;;;;;;;;20.70;99.90;;;;;;5052223;28;20075;-61
2023/08/05 09:45:25;;;;;;;6.55;2.47;;;20.70;99.90;;;;;;5050256;28;20278;-59
2023/08/05 09:48:07;;;;;;;6.28;2.10;;;20.70;99.90;;;;;;5052154;28;20055;-61
2023/08/05 09:50:37;;;;;;;5.93;2.15;;;20.80;99.90;;;;;;5051700;28;20393;-60
2023/08/05 09:53:06;;;;;;;7.43;2.35;;;20.80;99.90;;;;;;5051221;28;20419;-60
2023/08/05 09:55:33;;;;;;;6.68;1.92;;;20.80;99.90;;;;;;5051589;28;20513;-60
2023/08/05 09:57:59;;;;;;;9.48;2.30;;;20.90;99.90;;;;;;5051591;28;20051;-60
2023/08/05 10:00:27;;;;;;;7.35;2.30;;;20.90;99.90;;;;;;5051846;28;20486;-60
2023/08/05 10:02:54;;;;;;;7.47;2.35;;;21.00;99.90;;;;;;5051512;28;20033;-60
2023/08/05 10:05:22;;;;;;;6.57;2.15;;;21.00;99.90;;;;;;5051348;28;20021;-60
2023/08/05 10:07:52;;;;;;;7.60;2.55;;;21.10;99.90;;;;;;5051157;28;20453;-60
2023/08/05 10:10:20;;;;;;;7.13;2.50;;;21.20;99.90;;;;;;5051441;28;20049;-60
2023/08/05 10:12:54;;;;;;;9.18;2.70;;;21.40;99.90;;;;;;5051765;28;20029;-60
2023/08/05 10:15:28;;;;;;;6.85;2.28;;;21.50;99.90;;;;;;5051229;28;20036;-59
2023/08/05 10:17:54;;;;;;;;;;;21.60;99.90;;;;;;5051737;28;20029;-60
2023/08/05 10:20:20;;;;;;;8.73;2.20;;;21.60;99.90;;;;;;5050718;28;19934;-60
2023/08/05 10:23:08;;;;;;;7.10;2.55;;;21.70;99.90;;;;;;5051629;28;20025;-60
2023/08/05 10:25:49;;;;;;;6.22;2.13;;;21.70;99.90;;;;;;5050550;28;20091;-60
2023/08/05 10:28:23;;;;;;;7.50;2.55;;;21.80;99.90;;;;;;5051148;28;20025;-60
2023/08/05 10:30:51;;;;;;;7.82;2.35;;;21.60;99.90;;;;;;5051571;28;20037;-60
2023/08/05 10:33:17;;;;;;;6.00;2.10;;;21.70;99.90;;;;;;5051025;28;20550;-60
2023/08/05 10:35:44;;;;;;;7.00;2.50;;;21.90;99.90;;;;;;5050762;28;20401;-60
2023/08/05 10:38:21;;;;;;;5.78;2.45;;;21.90;99.90;;;;;;5051507;28;20120;-61
2023/08/05 10:40:47;;;;;;;7.43;2.30;;;21.90;99.90;;;;;;5050952;28;20033;-60
2023/08/05 10:43:34;;;;;;;9.27;2.35;;;21.90;99.90;;;;;;5051400;28;20033;-60
2023/08/05 10:46:06;;;;;;;8.52;2.35;;;21.90;99.90;;;;;;5051066;28;20521;-60
2023/08/05 10:48:36;;;;;;;8.05;2.45;;;21.90;99.90;;;;;;5050941;28;20035;-60
2023/08/05 10:51:16;;;;;;;7.75;2.30;;;22.10;99.90;;;;;;5051092;28;20040;-60
2023/08/05 10:54:00;;;;;;;4.68;2.03;;;22.20;99.90;;;;;;5055315;28;20416;-61
2023/08/05 10:56:33;;;;;;;6.25;2.08;;;22.20;99.90;;;;;;5055016;28;20033;-60
2023/08/05 10:59:03;;;;;;;7.18;2.35;;;21.90;99.90;;;;;;5055098;28;20045;-60
2023/08/05 11:01:55;;;;;;;8.57;2.25;;;21.60;99.90;;;;;;5055151;28;20037;-61
2023/08/05 11:04:30;;;;;;;7.22;2.33;;;21.50;99.90;;;;;;5054719;28;20564;-60
2023/08/05 11:07:00;;;;;;;9.27;2.40;;;21.40;99.90;;;;;;5054852;28;20405;-60
2023/08/05 11:09:26;;;;;;;6.72;2.42;;;21.40;99.90;;;;;;5054823;28;20078;-61
2023/08/05 11:11:52;;;;;;;6.55;2.33;;;21.50;99.90;;;;;;5054856;28;20028;-60
2023/08/05 11:14:19;;;;;;;6.82;2.22;;;21.60;99.90;;;;;;5054870;28;20023;-61
2023/08/05 11:16:45;;;;;;;9.15;2.53;;;21.80;99.90;;;;;;5054498;28;20035;-60
2023/08/05 11:19:12;;;;;;;8.55;2.30;;;21.90;99.90;;;;;;5054275;28;20032;-60
2023/08/05 11:21:38;;;;;;;8.43;2.25;;;21.90;99.90;;;;;;5054352;28;20502;-60
2023/08/05 11:24:04;;;;;;;6.30;1.90;;;21.90;99.90;;;;;;5054401;28;20020;-60
2023/08/05 11:26:30;;;;;;;6.25;2.20;;;22.00;99.90;;;;;;5054624;28;20041;-60
2023/08/05 11:29:00;;;;;;;6.32;2.08;;;22.20;99.90;;;;;;5054343;28;20021;-60
2023/08/05 11:31:26;;;;;;;4.53;1.92;;;22.20;99.90;;;;;;5054352;28;20068;-60
2023/08/05 11:33:55;;;;;;;6.10;2.45;;;22.30;99.90;;;;;;5054474;28;20025;-60
2023/08/05 11:36:25;;;;;;;6.03;2.35;;;22.30;99.90;;;;;;5054392;28;20021;-60
2023/08/05 11:38:51;;;;;;;6.88;2.35;;;22.20;99.90;;;;;;5054202;28;20053;-60
2023/08/05 11:41:17;;;;;;;7.75;2.40;;;22.20;99.90;;;;;;5054106;28;20068;-60
2023/08/05 11:43:43;;;;;;;5.32;2.13;;;22.20;99.90;;;;;;5054181;28;20482;-60
2023/08/05 11:46:26;;;;;;;6.60;2.30;;;22.20;99.90;;;;;;5054027;28;20027;-60
2023/08/05 11:49:07;;;;;;;6.32;2.42;;;22.00;99.90;;;;;;5054184;28;20017;-60
2023/08/05 11:51:45;;;;;;;5.78;2.13;;;22.00;99.90;;;;;;5054353;28;20028;-60
2023/08/05 11:54:11;;;;;;;6.63;2.17;;;22.10;99.90;;;;;;5053947;28;20509;-60
2023/08/05 11:56:36;;;;;;;7.57;2.10;;;22.10;99.90;;;;;;5054073;28;20021;-60
2023/08/05 11:59:02;;;;;;;5.30;1.90;;;22.10;99.90;;;;;;5053818;28;20043;-60
2023/08/05 12:01:28;;;;;;;5.80;2.10;;;21.90;99.90;;;;;;5053725;28;20036;-60
2023/08/05 12:03:57;;;;;;;5.72;2.50;;;21.90;99.90;;;;;;5052479;28;20074;-60
2023/08/05 12:06:26;;;;;;;6.95;2.15;;;21.90;99.90;;;;;;5053654;28;20064;-60
2023/08/05 12:08:59;;;;;;;6.45;2.33;;;21.90;99.90;;;;;;5053567;28;20021;-60
2023/08/05 12:11:25;;;;;;;7.18;2.60;;;21.90;99.90;;;;;;5053697;28;20039;-60
2023/08/05 12:13:51;;;;;;;8.05;2.33;;;21.90;99.90;;;;;;5053295;28;20025;-60
2023/08/05 12:16:17;;;;;;;9.25;2.55;;;21.90;99.90;;;;;;5053390;28;20052;-59
2023/08/05 12:18:47;;;;;;;8.98;2.50;;;21.90;99.90;;;;;;5053357;28;20473;-60
2023/08/05 12:21:13;;;;;;;6.43;2.35;;;21.90;99.90;;;;;;5053913;28;20039;-60
2023/08/05 12:23:42;;;;;;;9.25;3.10;;;21.80;99.90;;;;;;5053399;28;20017;-60
2023/08/05 12:26:09;;;;;;;6.70;2.45;;;21.60;99.90;;;;;;5053332;28;20053;-60
2023/08/05 12:28:35;;;;;;;8.68;2.58;;;21.60;99.90;;;;;;5053696;28;20128;-60
2023/08/05 12:31:00;;;;;;;8.85;2.70;;;21.50;99.90;;;;;;5052882;28;20867;-60
2023/08/05 12:33:27;;;;;;;7.18;2.40;;;21.40;99.90;;;;;;5053581;28;20091;-60
2023/08/05 12:35:53;;;;;;;7.60;2.63;;;21.50;99.90;;;;;;5053336;28;20505;-61
2023/08/05 12:38:19;;;;;;;5.90;2.33;;;21.50;99.90;;;;;;5053089;28;20024;-60
2023/08/05 12:40:44;;;;;;;8.65;2.38;;;21.40;99.90;;;;;;5052973;28;20040;-60
2023/08/05 12:43:12;;;;;;;5.55;2.42;;;21.50;99.90;;;;;;5052974;28;20035;-60
2023/08/05 12:45:38;;;;;;;6.85;2.63;;;21.70;99.90;;;;;;5052603;28;20103;-60